Terminal Aerodrome Forecast
Issued by NWS Wakefield, VA

Home | Current Version | Previous Version | Text Only | Print | Product List | Glossary On
Versions: 1 2 3 4 5 6 7 8 9 10 11 12 13 14 15 16
000
FTUS41 KAKQ 281700
TAFORF
TAF
KORF 281733Z 2818/2918 27010G18KT P6SM SCT060
     FM282300 29007KT P6SM SCT250
     FM290300 36007KT P6SM SKC
     FM291000 03009KT P6SM SCT030 BKN080=

USA.gov is the U.S. government's official web portal to all federal, state and local government web resources and services.